createdAt,value
2018-03-19T00:02:10.973Z,3.40
2018-03-19T00:04:39.996Z,3.12
2018-03-19T00:07:08.216Z,3.47
2018-03-19T00:09:38.057Z,3.20
2018-03-19T00:12:06.297Z,2.80
2018-03-19T00:14:34.521Z,2.85
2018-03-19T00:17:03.509Z,3.90
2018-03-19T00:19:31.736Z,3.70
2018-03-19T00:22:00.066Z,3.70
2018-03-19T00:24:28.330Z,3.40
2018-03-19T00:26:56.549Z,3.10
2018-03-19T00:29:24.802Z,3.20
2018-03-19T00:31:53.923Z,3.75
2018-03-19T00:34:22.195Z,3.75
2018-03-19T00:36:50.438Z,3.53
2018-03-19T00:39:18.674Z,3.20
2018-03-19T00:41:46.872Z,4.30
2018-03-19T00:44:15.081Z,3.78
2018-03-19T00:46:43.264Z,3.25
2018-03-19T00:49:12.289Z,3.40
2018-03-19T00:51:41.256Z,3.30
2018-03-19T00:54:09.535Z,3.92
2018-03-19T00:56:37.712Z,3.62
2018-03-19T00:59:05.860Z,3.25
2018-03-19T01:01:34.062Z,3.70
2018-03-19T01:04:02.236Z,3.40
2018-03-19T01:06:30.403Z,3.87
2018-03-19T01:08:58.688Z,3.25
2018-03-19T01:11:26.884Z,3.40
2018-03-19T01:13:55.081Z,4.25
2018-03-19T01:16:23.550Z,4.00
2018-03-19T01:18:51.745Z,3.20
2018-03-19T01:21:19.933Z,3.95
2018-03-19T01:23:48.283Z,3.62
2018-03-19T01:26:16.523Z,3.50
2018-03-19T01:28:44.707Z,3.22
2018-03-19T01:31:13.665Z,3.42
2018-03-19T01:33:42.021Z,3.90
2018-03-19T01:36:10.240Z,3.92
2018-03-19T01:38:38.494Z,3.47
2018-03-19T01:41:06.696Z,3.45
2018-03-19T01:43:35.634Z,3.40
2018-03-19T01:46:03.834Z,3.80
2018-03-19T01:48:32.068Z,3.90
2018-03-19T01:51:00.320Z,4.30
2018-03-19T01:53:28.526Z,3.33
2018-03-19T01:55:56.735Z,3.75
2018-03-19T01:58:24.996Z,3.00
2018-03-19T02:00:53.181Z,3.62
2018-03-19T02:03:21.409Z,3.60
2018-03-19T02:05:49.604Z,3.65
2018-03-19T02:08:17.873Z,3.55
2018-03-19T02:10:46.058Z,3.50
2018-03-19T02:13:14.255Z,4.05
2018-03-19T02:15:42.441Z,3.20
2018-03-19T02:18:10.633Z,3.33
2018-03-19T02:20:38.801Z,3.90
2018-03-19T02:23:07.776Z,3.97
2018-03-19T02:25:35.988Z,3.97
2018-03-19T02:28:04.337Z,3.25
2018-03-19T02:30:33.271Z,3.55
2018-03-19T02:33:01.496Z,3.87
2018-03-19T02:35:30.428Z,3.40
2018-03-19T02:37:58.612Z,3.35
2018-03-19T02:40:26.793Z,3.40
2018-03-19T02:42:55.011Z,3.90
2018-03-19T02:45:24.896Z,3.97
2018-03-19T02:47:53.117Z,4.00
2018-03-19T02:50:21.414Z,3.78
2018-03-19T02:52:49.626Z,3.85
2018-03-19T02:55:17.823Z,4.25
2018-03-19T02:57:46.158Z,4.80
2018-03-19T03:00:14.385Z,3.65
2018-03-19T03:02:42.645Z,3.70
2018-03-19T03:05:11.615Z,3.75
2018-03-19T03:07:40.242Z,3.83
2018-03-19T03:10:08.416Z,3.35
2018-03-19T03:12:36.622Z,3.70
2018-03-19T03:15:04.845Z,4.28
2018-03-19T03:17:33.799Z,3.75
2018-03-19T03:20:02.072Z,4.03
2018-03-19T03:22:30.240Z,3.70
2018-03-19T03:24:58.442Z,3.65
2018-03-19T03:27:26.630Z,3.62
2018-03-19T03:29:55.634Z,4.05
2018-03-19T03:32:24.080Z,3.72
2018-03-19T03:34:52.321Z,4.35
2018-03-19T03:37:20.487Z,4.40
2018-03-19T03:39:48.680Z,3.70
2018-03-19T03:42:16.863Z,3.80
2018-03-19T03:44:45.073Z,3.95
2018-03-19T03:47:14.640Z,3.97
2018-03-19T03:49:42.838Z,4.10
2018-03-19T03:52:11.004Z,4.30
2018-03-19T03:54:39.234Z,4.12
2018-03-19T03:57:07.410Z,3.78
2018-03-19T03:59:36.804Z,3.53
2018-03-19T04:02:05.741Z,3.80
2018-03-19T04:04:33.949Z,3.80
2018-03-19T04:07:02.254Z,5.25
2018-03-19T04:09:30.478Z,4.30
2018-03-19T04:11:59.494Z,3.97
2018-03-19T04:14:27.700Z,4.25
2018-03-19T04:16:55.966Z,3.80
2018-03-19T04:19:24.204Z,4.00
2018-03-19T04:21:53.187Z,3.80
2018-03-19T04:24:21.441Z,4.50
2018-03-19T04:26:49.594Z,4.10
2018-03-19T04:29:17.847Z,4.30
2018-03-19T04:31:46.114Z,4.00
2018-03-19T04:34:14.390Z,3.85
2018-03-19T04:36:42.582Z,4.20
2018-03-19T04:39:12.579Z,4.25
2018-03-19T04:41:40.748Z,4.37
2018-03-19T04:44:08.919Z,4.30
2018-03-19T04:46:37.080Z,4.43
2018-03-19T04:49:05.273Z,4.78
2018-03-19T04:51:33.459Z,4.30
2018-03-19T04:54:01.662Z,4.32
2018-03-19T04:56:29.894Z,3.90
2018-03-19T04:58:58.176Z,4.50
2018-03-19T05:01:26.428Z,5.05
2018-03-19T05:03:54.655Z,4.18
2018-03-19T05:06:22.822Z,4.40
2018-03-19T05:08:51.007Z,4.47
2018-03-19T05:11:20.527Z,4.43
2018-03-19T05:13:49.501Z,4.50
2018-03-19T05:16:17.700Z,4.00
2018-03-19T05:18:45.916Z,4.78
2018-03-19T05:21:14.109Z,5.07
2018-03-19T05:23:42.330Z,5.03
2018-03-19T05:26:11.414Z,4.62
2018-03-19T05:28:40.376Z,4.90
2018-03-19T05:31:08.524Z,4.57
2018-03-19T05:33:36.704Z,4.90
2018-03-19T05:36:04.997Z,4.37
2018-03-19T05:38:33.213Z,4.70
2018-03-19T05:41:02.147Z,5.37
2018-03-19T05:43:30.426Z,4.57
2018-03-19T05:45:58.600Z,5.15
2018-03-19T05:48:26.822Z,5.07
2018-03-19T05:50:55.815Z,5.25
2018-03-19T05:53:24.797Z,4.40
2018-03-19T05:55:53.807Z,4.80
2018-03-19T05:58:22.071Z,5.20
2018-03-19T06:00:50.270Z,5.70
2018-03-19T06:03:18.506Z,5.55
2018-03-19T06:05:47.514Z,4.62
2018-03-19T06:08:16.519Z,5.93
2018-03-19T06:10:44.733Z,5.07
2018-03-19T06:13:12.966Z,6.00
2018-03-19T06:15:41.149Z,6.25
2018-03-19T06:18:09.385Z,5.95
2018-03-19T06:20:37.598Z,5.45
2018-03-19T06:23:05.798Z,6.35
2018-03-19T06:25:34.082Z,5.60
2018-03-19T06:28:02.311Z,5.70
2018-03-19T06:30:30.512Z,4.78
2018-03-19T06:32:58.730Z,5.15
2018-03-19T06:35:26.907Z,5.53
2018-03-19T06:37:55.118Z,5.35
2018-03-19T06:40:23.370Z,4.70
2018-03-19T06:42:52.441Z,5.72
2018-03-19T06:45:20.693Z,5.80
2018-03-19T06:47:48.884Z,5.65
2018-03-19T06:50:17.109Z,5.00
2018-03-19T06:52:45.290Z,4.80
2018-03-19T06:55:13.493Z,5.10
2018-03-19T06:57:41.659Z,5.30
2018-03-19T07:00:09.970Z,5.60
2018-03-19T07:02:38.178Z,5.85
2018-03-19T07:05:06.343Z,5.45
2018-03-19T07:07:34.538Z,6.10
2018-03-19T07:10:03.523Z,6.20
2018-03-19T07:12:31.729Z,5.93
2018-03-19T07:14:59.908Z,5.90
2018-03-19T07:17:29.114Z,6.03
2018-03-19T07:19:57.320Z,5.35
2018-03-19T07:22:26.435Z,5.40
2018-03-19T07:24:54.853Z,5.85
2018-03-19T07:27:23.129Z,6.45
2018-03-19T07:29:51.335Z,6.07
2018-03-19T07:32:20.363Z,5.68
2018-03-19T07:34:48.664Z,5.75
2018-03-19T07:37:17.032Z,6.80
2018-03-19T07:39:45.376Z,5.93
2018-03-19T07:42:13.628Z,5.97
2018-03-19T07:44:42.569Z,5.97
2018-03-19T07:47:10.900Z,5.37
2018-03-19T07:49:39.249Z,5.43
2018-03-19T07:52:07.628Z,6.30
2018-03-19T07:54:35.828Z,5.95
2018-03-19T07:57:04.792Z,6.03
2018-03-19T07:59:32.969Z,5.20
2018-03-19T08:02:01.173Z,7.00
2018-03-19T08:04:29.351Z,5.32
2018-03-19T08:06:57.570Z,6.07
2018-03-19T08:09:25.899Z,5.87
2018-03-19T08:11:54.111Z,5.60
2018-03-19T08:14:22.421Z,5.10
2018-03-19T08:16:50.615Z,6.00
2018-03-19T08:19:19.593Z,6.12
2018-03-19T08:21:48.558Z,5.78
2018-03-19T08:24:16.751Z,5.90
2018-03-19T08:26:45.075Z,6.50
2018-03-19T08:29:13.259Z,5.72
2018-03-19T08:31:41.527Z,5.30
2018-03-19T08:34:09.706Z,5.80
2018-03-19T08:36:37.883Z,6.18
2018-03-19T08:39:07.039Z,5.40
2018-03-19T08:41:35.359Z,5.12
2018-03-19T08:44:03.639Z,6.20
2018-03-19T08:46:31.862Z,5.10
2018-03-19T08:49:00.104Z,5.50
2018-03-19T08:51:28.412Z,5.82
2018-03-19T08:53:57.463Z,5.70
2018-03-19T08:56:25.772Z,5.68
2018-03-19T08:58:54.858Z,5.43
2018-03-19T09:01:23.042Z,5.75
2018-03-19T09:03:51.371Z,4.80
2018-03-19T09:06:19.615Z,5.00
2018-03-19T09:08:47.972Z,5.05
2018-03-19T09:11:17.267Z,5.70
2018-03-19T09:13:46.409Z,4.80
2018-03-19T09:16:14.722Z,4.70
2018-03-19T09:18:42.950Z,5.18
2018-03-19T09:21:12.032Z,5.60
2018-03-19T09:23:41.140Z,4.95
2018-03-19T09:26:10.180Z,5.50
2018-03-19T09:28:38.945Z,4.95
2018-03-19T09:31:07.175Z,5.47
2018-03-19T09:33:36.207Z,4.80
2018-03-19T09:36:04.452Z,5.10
2018-03-19T09:38:32.706Z,5.43
2018-03-19T09:41:01.111Z,5.30
2018-03-19T09:43:29.328Z,4.85
2018-03-19T09:45:57.568Z,5.05
2018-03-19T09:48:25.831Z,5.22
2018-03-19T09:50:54.051Z,5.15
2018-03-19T09:53:22.299Z,4.18
2018-03-19T09:55:50.531Z,5.12
2018-03-19T09:58:18.776Z,5.43
2018-03-19T10:00:47.047Z,4.28
2018-03-19T10:03:15.301Z,5.53
2018-03-19T10:05:43.491Z,4.40
2018-03-19T10:08:11.765Z,4.68
2018-03-19T10:10:40.043Z,5.37
2018-03-19T10:13:08.837Z,5.03
2018-03-19T10:15:37.214Z,5.07
2018-03-19T10:18:05.448Z,5.15
2018-03-19T10:20:33.728Z,5.60
2018-03-19T10:23:02.034Z,4.72
2018-03-19T10:25:30.427Z,5.22
2018-03-19T10:27:58.678Z,4.90
2018-03-19T10:30:26.924Z,4.97
2018-03-19T10:32:56.313Z,4.68
2018-03-19T10:35:24.677Z,4.62
2018-03-19T10:37:56.517Z,4.68
2018-03-19T10:40:25.803Z,5.03
2018-03-19T10:43:05.047Z,3.92
2018-03-19T10:48:57.417Z,3.90
2018-03-19T10:54:09.711Z,4.60
2018-03-19T10:56:40.922Z,4.90
2018-03-19T10:59:09.716Z,4.70
2018-03-19T11:05:32.419Z,4.97
2018-03-19T11:08:46.272Z,4.53
2018-03-19T11:11:14.715Z,4.47
2018-03-19T11:13:42.927Z,4.72
2018-03-19T11:16:12.020Z,4.32
2018-03-19T11:18:40.352Z,4.68
2018-03-19T11:21:10.680Z,4.32
2018-03-19T11:23:40.853Z,4.22
2018-03-19T11:26:11.533Z,4.20
2018-03-19T11:28:41.511Z,4.43
2018-03-19T11:31:10.116Z,4.60
2018-03-19T11:33:38.411Z,4.28
2018-03-19T11:36:06.946Z,4.10
2018-03-19T11:38:39.659Z,4.20
2018-03-19T11:41:09.935Z,4.20
2018-03-19T11:43:38.279Z,3.80
2018-03-19T11:46:07.178Z,4.62
2018-03-19T11:48:36.569Z,4.32
2018-03-19T11:55:51.405Z,3.78
2018-03-19T12:01:37.261Z,4.62
2018-03-19T12:04:05.463Z,4.97
2018-03-19T12:06:33.701Z,4.10
2018-03-19T12:09:01.939Z,4.60
2018-03-19T12:11:30.963Z,4.12
2018-03-19T12:13:59.380Z,4.70
2018-03-19T12:16:27.560Z,4.12
2018-03-19T12:18:55.800Z,5.00
2018-03-19T12:21:25.920Z,4.12
2018-03-19T12:23:54.144Z,4.60
2018-03-19T12:26:27.092Z,5.10
2018-03-19T12:28:55.429Z,4.60
2018-03-19T12:31:23.638Z,4.30
2018-03-19T12:33:51.990Z,4.00
2018-03-19T12:36:20.274Z,4.05
2018-03-19T12:38:50.434Z,4.40
2018-03-19T12:41:18.779Z,4.30
2018-03-19T12:43:47.092Z,4.70
2018-03-19T12:46:38.210Z,4.45
2018-03-19T12:49:07.293Z,4.20
2018-03-19T12:57:46.512Z,4.45
2018-03-19T13:00:18.260Z,4.28
2018-03-19T13:02:58.974Z,4.60
2018-03-19T13:05:29.299Z,3.95
2018-03-19T13:08:08.842Z,3.90
2018-03-19T13:11:02.584Z,4.30
2018-03-19T13:13:30.945Z,4.00
2018-03-19T13:16:01.661Z,4.45
2018-03-19T13:18:29.929Z,4.75
2018-03-19T13:20:58.958Z,5.22
2018-03-19T13:23:27.999Z,4.57
2018-03-19T13:25:56.266Z,3.85
2018-03-19T13:28:24.560Z,4.82
2018-03-19T13:30:54.209Z,3.92
2018-03-19T13:33:22.536Z,3.70
2018-03-19T13:35:50.846Z,4.65
2018-03-19T13:38:19.103Z,4.47
2018-03-19T13:40:48.206Z,3.42
2018-03-19T13:43:17.349Z,3.85
2018-03-19T13:45:45.667Z,4.20
2018-03-19T13:48:14.740Z,4.60
2018-03-19T13:50:43.753Z,4.65
2018-03-19T13:53:12.765Z,4.45
2018-03-19T13:55:41.111Z,4.20
2018-03-19T13:58:09.315Z,3.90
2018-03-19T14:00:37.618Z,5.20
2018-03-19T14:03:05.921Z,4.40
2018-03-19T14:05:34.259Z,3.80
2018-03-19T14:08:02.578Z,4.22
2018-03-19T14:10:30.878Z,4.25
2018-03-19T14:12:59.240Z,4.82
2018-03-19T14:15:27.614Z,4.65
2018-03-19T14:17:56.784Z,4.25
2018-03-19T14:20:25.830Z,4.25
2018-03-19T14:40:31.325Z,4.47
2018-03-19T14:43:04.452Z,4.75
2018-03-19T14:45:32.795Z,5.25
2018-03-19T14:48:01.105Z,5.20
2018-03-19T14:50:32.236Z,5.15
2018-03-19T14:53:00.370Z,4.60
2018-03-19T14:55:32.168Z,5.12
2018-03-19T14:58:01.194Z,4.37
2018-03-19T15:00:29.516Z,5.07
2018-03-19T15:02:57.678Z,4.68
2018-03-19T15:05:25.991Z,5.03
2018-03-19T15:07:54.198Z,4.45
2018-03-19T15:10:23.419Z,4.60
2018-03-19T15:12:51.658Z,4.57
2018-03-19T15:15:20.713Z,4.97
2018-03-19T15:17:50.043Z,5.35
2018-03-19T15:20:18.289Z,4.80
2018-03-19T15:22:46.492Z,4.43
2018-03-19T15:25:15.563Z,4.78
2018-03-19T15:27:43.712Z,4.93
2018-03-19T15:30:11.987Z,5.10
2018-03-19T15:32:40.209Z,4.20
2018-03-19T15:35:10.582Z,5.30
2018-03-19T15:37:38.800Z,4.40
2018-03-19T15:40:07.802Z,5.20
2018-03-19T15:42:36.019Z,5.00
2018-03-19T15:45:04.194Z,5.05
2018-03-19T15:47:32.378Z,5.07
2018-03-19T15:50:00.721Z,5.28
2018-03-19T15:52:28.925Z,5.10
2018-03-19T15:54:57.223Z,5.45
2018-03-19T15:57:25.557Z,5.10
2018-03-19T15:59:54.017Z,5.37
2018-03-19T16:02:22.307Z,4.60
2018-03-19T16:04:50.470Z,5.22
2018-03-19T16:07:18.622Z,5.43
2018-03-19T16:09:46.780Z,4.97
2018-03-19T16:12:15.030Z,5.25
2018-03-19T16:14:43.282Z,5.43
2018-03-19T16:17:11.476Z,5.95
2018-03-19T16:19:39.738Z,5.97
2018-03-19T16:22:07.980Z,5.40
2018-03-19T16:24:36.371Z,5.65
2018-03-19T16:27:04.551Z,6.80
2018-03-19T16:29:32.731Z,6.00
2018-03-19T16:32:01.650Z,5.93
2018-03-19T16:34:29.919Z,5.40
2018-03-19T16:36:58.074Z,6.07
2018-03-19T16:39:26.297Z,6.53
2018-03-19T16:45:21.040Z,5.95
2018-03-19T16:48:13.604Z,5.72
2018-03-19T16:50:58.566Z,6.30
2018-03-19T16:53:57.158Z,6.45
2018-03-19T16:56:33.742Z,6.43
2018-03-19T16:59:34.340Z,6.07
2018-03-19T17:02:13.917Z,5.65
2018-03-19T17:04:52.222Z,6.57
2018-03-19T17:07:23.889Z,5.72
2018-03-19T17:10:19.494Z,6.43
2018-03-19T17:13:22.370Z,5.37
2018-03-19T17:18:50.569Z,5.55
2018-03-19T17:24:10.291Z,6.55
2018-03-19T17:26:40.933Z,5.68
2018-03-19T17:29:09.277Z,5.68
2018-03-19T17:32:20.952Z,5.82
2018-03-19T17:41:03.190Z,4.72
2018-03-19T17:46:37.204Z,6.12
2018-03-19T17:49:05.497Z,6.07
2018-03-19T17:51:35.458Z,6.50
2018-03-19T17:54:03.750Z,6.65
2018-03-19T17:56:32.696Z,7.20
2018-03-19T17:59:00.919Z,6.62
2018-03-19T18:01:29.861Z,6.57
2018-03-19T18:03:58.108Z,6.85
2018-03-19T18:06:26.308Z,6.82
2018-03-19T18:08:55.286Z,5.95
2018-03-19T18:11:23.506Z,6.05
2018-03-19T18:13:51.696Z,6.07
2018-03-19T18:16:19.909Z,6.10
2018-03-19T18:18:48.071Z,6.70
2018-03-19T18:21:16.289Z,6.55
2018-03-19T18:23:44.429Z,6.00
2018-03-19T18:26:12.634Z,6.80
2018-03-19T18:28:40.831Z,6.60
2018-03-19T18:31:09.014Z,6.95
2018-03-19T18:33:37.196Z,5.95
2018-03-19T18:36:05.445Z,6.72
2018-03-19T18:38:33.582Z,6.57
2018-03-19T18:41:01.794Z,7.20
2018-03-19T18:43:30.015Z,6.28
2018-03-19T18:45:58.194Z,6.72
2018-03-19T18:48:26.397Z,7.60
2018-03-19T18:50:54.596Z,7.32
2018-03-19T18:53:22.779Z,6.53
2018-03-19T18:55:51.892Z,6.65
2018-03-19T18:58:20.163Z,6.20
2018-03-19T19:00:48.404Z,6.30
2018-03-19T19:03:17.362Z,7.30
2018-03-19T19:05:45.549Z,6.05
2018-03-19T19:08:13.887Z,6.95
2018-03-19T19:10:42.139Z,5.80
2018-03-19T19:13:10.327Z,6.75
2018-03-19T19:15:38.481Z,6.47
2018-03-19T19:18:06.697Z,6.43
2018-03-19T19:20:34.883Z,7.18
2018-03-19T19:23:03.097Z,6.65
2018-03-19T19:25:31.325Z,6.32
2018-03-19T19:27:59.520Z,6.32
2018-03-19T19:30:27.727Z,6.35
2018-03-19T19:32:55.906Z,6.03
2018-03-19T19:35:24.140Z,6.50
2018-03-19T19:37:52.326Z,6.78
2018-03-19T19:40:20.563Z,7.12
2018-03-19T19:42:48.812Z,7.25
2018-03-19T19:45:17.058Z,6.22
2018-03-19T19:47:46.131Z,7.15
2018-03-19T19:50:14.311Z,6.70
2018-03-19T19:52:42.514Z,7.53
2018-03-19T19:55:10.687Z,7.28
2018-03-19T19:57:38.881Z,7.30
2018-03-19T20:00:07.040Z,7.82
2018-03-19T20:02:35.324Z,7.78
2018-03-19T20:05:04.058Z,8.55
2018-03-19T20:07:32.273Z,8.15
2018-03-19T20:10:00.643Z,7.68
2018-03-19T20:12:28.852Z,7.47
2018-03-19T20:14:57.003Z,6.45
2018-03-19T20:17:25.187Z,7.18
2018-03-19T20:19:53.378Z,7.93
2018-03-19T20:22:21.738Z,8.60
2018-03-19T20:24:50.685Z,7.85
2018-03-19T20:27:19.687Z,7.90
2018-03-19T20:29:47.899Z,9.15
2018-03-19T20:32:16.095Z,9.00
2018-03-19T20:34:44.437Z,8.15
2018-03-19T20:37:12.656Z,7.12
2018-03-19T20:39:40.866Z,7.45
2018-03-19T20:42:09.826Z,7.43
2018-03-19T20:44:38.156Z,7.32
2018-03-19T20:47:06.377Z,8.20
2018-03-19T20:49:35.463Z,6.60
2018-03-19T20:52:05.133Z,7.20
2018-03-19T20:54:33.499Z,7.95
2018-03-19T20:57:01.834Z,7.45
2018-03-19T20:59:30.072Z,7.22
2018-03-19T21:01:58.329Z,8.43
2018-03-19T21:04:26.874Z,7.95
2018-03-19T21:06:55.095Z,7.62
2018-03-19T21:09:23.337Z,7.25
2018-03-19T21:11:52.380Z,6.75
2018-03-19T21:14:20.704Z,7.05
2018-03-19T21:16:49.657Z,6.65
2018-03-19T21:19:17.961Z,6.43
2018-03-19T21:21:46.440Z,6.18
2018-03-19T21:24:15.508Z,6.60
2018-03-19T21:26:43.713Z,6.55
2018-03-19T21:29:12.717Z,6.32
2018-03-19T21:31:41.718Z,6.68
2018-03-19T21:34:09.916Z,6.25
2018-03-19T21:36:38.265Z,5.80
2018-03-19T21:39:07.205Z,5.90
2018-03-19T21:41:36.195Z,6.37
2018-03-19T21:44:04.359Z,4.95
2018-03-19T21:46:32.619Z,4.95
2018-03-19T21:49:01.068Z,5.55
2018-03-19T21:51:30.007Z,5.55
2018-03-19T21:53:58.909Z,5.10
2018-03-19T21:56:27.072Z,5.82
2018-03-19T21:58:55.247Z,5.55
2018-03-19T22:01:23.518Z,5.05
2018-03-19T22:03:52.527Z,5.35
2018-03-19T22:06:20.735Z,5.80
2018-03-19T22:08:48.906Z,5.82
2018-03-19T22:11:17.111Z,5.30
2018-03-19T22:13:45.266Z,5.05
2018-03-19T22:16:13.431Z,5.20
2018-03-19T22:18:41.598Z,5.40
2018-03-19T22:21:10.545Z,4.90
2018-03-19T22:23:38.784Z,5.30
2018-03-19T22:26:06.991Z,5.62
2018-03-19T22:28:35.430Z,5.12
2018-03-19T22:31:03.584Z,5.65
2018-03-19T22:33:32.529Z,5.03
2018-03-19T22:36:00.672Z,5.40
2018-03-19T22:38:28.890Z,4.65
2018-03-19T22:40:57.144Z,6.10
2018-03-19T22:43:25.330Z,5.50
2018-03-19T22:45:53.504Z,5.00
2018-03-19T22:48:21.678Z,5.37
2018-03-19T22:50:49.918Z,5.18
2018-03-19T22:53:18.081Z,5.72
2018-03-19T22:55:46.259Z,4.50
2018-03-19T22:58:14.522Z,4.80
2018-03-19T23:00:42.791Z,5.90
2018-03-19T23:03:11.765Z,4.78
2018-03-19T23:05:39.940Z,5.10
2018-03-19T23:08:08.160Z,5.00
2018-03-19T23:10:36.384Z,5.60
2018-03-19T23:13:04.657Z,4.80
2018-03-19T23:15:32.860Z,5.50
2018-03-19T23:18:01.015Z,4.95
2018-03-19T23:20:30.014Z,5.20
2018-03-19T23:22:59.010Z,4.93
2018-03-19T23:25:27.175Z,4.87
2018-03-19T23:27:56.131Z,5.10
2018-03-19T23:30:24.304Z,4.80
2018-03-19T23:32:52.467Z,5.20
2018-03-19T23:35:20.654Z,4.75
2018-03-19T23:37:48.823Z,5.05
2018-03-19T23:40:17.019Z,4.45
2018-03-19T23:42:45.179Z,4.60
2018-03-19T23:45:13.438Z,5.15
2018-03-19T23:47:42.458Z,4.95
2018-03-19T23:50:10.748Z,5.70
2018-03-19T23:52:39.754Z,4.65
2018-03-19T23:55:07.921Z,5.20
2018-03-19T23:57:36.153Z,5.07
